PAS327 WIBB-WIII
Flight info
| Callsign | PAS327 |
|---|---|
| Flight time | 1h 28m |
| Altitude | 34000 |
| Route | ISROR T5 BUNIK |
| Aircraft | A320/M-SDE3FGHIRWY/LB1 |
Departure
| Time | 2026-04-24 09:36 |
|---|---|
| Airport | Sultan Syarif Kasim II International Airport / Roesmin Nurjadin AFB (WIBB) |
Arrival
| Time | 2026-04-24 11:04 |
|---|---|
| Airport | Soekarno-Hatta International Airport (WIII) |
| Time | Latitude | Longitude | Altitude | Speed | Heading |
|---|---|---|---|---|---|
| 2026-04-24 09:18 | 0.46387 | 101.44688 | 145 ft | 0 kts | 89° |
| 2026-04-24 09:25 | 0.46387 | 101.44686 | 145 ft | 2 kts | 89° |
| 2026-04-24 09:25 | 0.46387 | 101.44665 | 146 ft | 2 kts | 90° |
| 2026-04-24 09:25 | 0.46386 | 101.44639 | 146 ft | 4 kts | 83° |
| 2026-04-24 09:25 | 0.46381 | 101.44613 | 146 ft | 4 kts | 70° |
| 2026-04-24 09:26 | 0.46369 | 101.44591 | 146 ft | 2 kts | 52° |
| 2026-04-24 09:26 | 0.46366 | 101.44587 | 146 ft | 0 kts | 51° |
| 2026-04-24 09:28 | 0.46376 | 101.44588 | 146 ft | 3 kts | 9° |
| 2026-04-24 09:29 | 0.46417 | 101.44588 | 146 ft | 7 kts | 360° |
| 2026-04-24 09:29 | 0.46472 | 101.44590 | 146 ft | 8 kts | 1° |
| 2026-04-24 09:29 | 0.46531 | 101.44591 | 146 ft | 9 kts | 0° |
| 2026-04-24 09:29 | 0.46583 | 101.44591 | 147 ft | 6 kts | 0° |
| 2026-04-24 09:30 | 0.46616 | 101.44591 | 147 ft | 3 kts | 0° |
| 2026-04-24 09:30 | 0.46627 | 101.44591 | 148 ft | 0 kts | 0° |
| 2026-04-24 09:30 | 0.46632 | 101.44585 | 148 ft | 1 kts | 300° |
| 2026-04-24 09:30 | 0.46635 | 101.44566 | 148 ft | 7 kts | 272° |
| 2026-04-24 09:31 | 0.46635 | 101.44523 | 148 ft | 5 kts | 270° |
| 2026-04-24 09:31 | 0.46648 | 101.44476 | 148 ft | 9 kts | 314° |
| 2026-04-24 09:31 | 0.46697 | 101.44469 | 149 ft | 6 kts | 6° |
| 2026-04-24 09:31 | 0.46764 | 101.44471 | 150 ft | 13 kts | 1° |
| 2026-04-24 09:32 | 0.46854 | 101.44473 | 150 ft | 14 kts | 1° |
| 2026-04-24 09:32 | 0.46966 | 101.44476 | 149 ft | 14 kts | 2° |
| 2026-04-24 09:32 | 0.47048 | 101.44503 | 148 ft | 9 kts | 21° |
| 2026-04-24 09:32 | 0.47082 | 101.44495 | 148 ft | 3 kts | 307° |
| 2026-04-24 09:33 | 0.47075 | 101.44483 | 148 ft | 1 kts | 216° |
| 2026-04-24 09:33 | 0.47073 | 101.44483 | 148 ft | 1 kts | 206° |
| 2026-04-24 09:33 | 0.47069 | 101.44483 | 148 ft | 0 kts | 187° |
| 2026-04-24 09:35 | 0.46987 | 101.44475 | 149 ft | 42 kts | 184° |
| 2026-04-24 09:35 | 0.46444 | 101.44462 | 146 ft | 111 kts | 181° |
| 2026-04-24 09:35 | 0.45484 | 101.44436 | 135 ft | 163 kts | 180° |
| 2026-04-24 09:35 | 0.44338 | 101.44422 | 561 ft | 172 kts | 178° |
| 2026-04-24 09:36 | 0.43096 | 101.44416 | 1067 ft | 179 kts | 180° |
| 2026-04-24 09:36 | 0.41849 | 101.44382 | 1639 ft | 183 kts | 176° |
| 2026-04-24 09:36 | 0.40646 | 101.44869 | 1814 ft | 201 kts | 136° |
| 2026-04-24 09:36 | 0.39646 | 101.45960 | 1973 ft | 225 kts | 128° |
| 2026-04-24 09:37 | 0.38632 | 101.47248 | 2230 ft | 248 kts | 127° |
| 2026-04-24 09:37 | 0.37541 | 101.48662 | 2679 ft | 263 kts | 127° |
| 2026-04-24 09:37 | 0.36398 | 101.50119 | 3385 ft | 268 kts | 128° |
| 2026-04-24 09:37 | 0.35223 | 101.51586 | 4144 ft | 272 kts | 128° |
| 2026-04-24 09:38 | 0.34024 | 101.53060 | 4884 ft | 275 kts | 129° |
| 2026-04-24 09:38 | 0.32800 | 101.54544 | 5632 ft | 278 kts | 129° |
| 2026-04-24 09:38 | 0.31560 | 101.56038 | 6360 ft | 281 kts | 129° |
| 2026-04-24 09:38 | 0.30299 | 101.57550 | 7084 ft | 284 kts | 129° |
| 2026-04-24 09:39 | 0.29027 | 101.59073 | 7778 ft | 287 kts | 129° |
| 2026-04-24 09:39 | 0.27743 | 101.60611 | 8455 ft | 290 kts | 129° |
| 2026-04-24 09:39 | 0.26454 | 101.62151 | 9115 ft | 294 kts | 129° |
| 2026-04-24 09:39 | 0.25136 | 101.63725 | 9761 ft | 297 kts | 129° |
| 2026-04-24 09:40 | 0.23793 | 101.65330 | 10168 ft | 310 kts | 129° |
| 2026-04-24 09:40 | 0.22365 | 101.67040 | 10293 ft | 331 kts | 129° |
| 2026-04-24 09:40 | 0.20832 | 101.68876 | 10614 ft | 344 kts | 129° |
| 2026-04-24 09:40 | 0.19287 | 101.70724 | 11172 ft | 349 kts | 129° |
| 2026-04-24 09:41 | 0.17745 | 101.72566 | 11781 ft | 351 kts | 129° |
| 2026-04-24 09:41 | 0.16179 | 101.74441 | 12384 ft | 353 kts | 130° |
| 2026-04-24 09:41 | 0.14592 | 101.76342 | 12974 ft | 357 kts | 129° |
| 2026-04-24 09:41 | 0.13003 | 101.78248 | 13557 ft | 359 kts | 129° |
| 2026-04-24 09:42 | 0.11399 | 101.80169 | 14166 ft | 360 kts | 129° |
| 2026-04-24 09:42 | 0.09771 | 101.82083 | 14696 ft | 364 kts | 130° |
| 2026-04-24 09:42 | 0.08097 | 101.84017 | 15048 ft | 374 kts | 130° |
| 2026-04-24 09:42 | 0.06385 | 101.85979 | 15631 ft | 373 kts | 130° |
| 2026-04-24 09:43 | 0.04674 | 101.87932 | 16242 ft | 373 kts | 130° |
| 2026-04-24 09:43 | 0.02963 | 101.89889 | 16785 ft | 375 kts | 130° |
| 2026-04-24 09:43 | 0.01221 | 101.91888 | 17298 ft | 377 kts | 130° |
| 2026-04-24 09:43 | -0.00481 | 101.93849 | 17781 ft | 380 kts | 130° |
| 2026-04-24 09:44 | -0.02218 | 101.95854 | 18256 ft | 382 kts | 130° |
| 2026-04-24 09:44 | -0.03962 | 101.97869 | 18724 ft | 385 kts | 130° |
| 2026-04-24 09:44 | -0.05720 | 101.99899 | 19164 ft | 388 kts | 130° |
| 2026-04-24 09:44 | -0.07495 | 102.01948 | 19604 ft | 391 kts | 130° |
| 2026-04-24 09:45 | -0.09279 | 102.04008 | 20024 ft | 394 kts | 130° |
| 2026-04-24 09:45 | -0.11088 | 102.06093 | 20458 ft | 397 kts | 130° |
| 2026-04-24 09:45 | -0.12903 | 102.08179 | 20874 ft | 400 kts | 130° |
| 2026-04-24 09:45 | -0.14736 | 102.10291 | 21260 ft | 403 kts | 130° |
| 2026-04-24 09:46 | -0.16576 | 102.12415 | 21656 ft | 406 kts | 130° |
| 2026-04-24 09:46 | -0.18425 | 102.14552 | 22041 ft | 408 kts | 130° |
| 2026-04-24 09:46 | -0.20294 | 102.16711 | 22395 ft | 411 kts | 130° |
| 2026-04-24 09:46 | -0.22172 | 102.18878 | 22744 ft | 414 kts | 130° |
| 2026-04-24 09:47 | -0.24063 | 102.21059 | 23099 ft | 416 kts | 130° |
| 2026-04-24 09:47 | -0.25964 | 102.23254 | 23422 ft | 419 kts | 130° |
| 2026-04-24 09:47 | -0.27884 | 102.25465 | 23743 ft | 422 kts | 131° |
| 2026-04-24 09:47 | -0.29808 | 102.27680 | 24058 ft | 424 kts | 131° |
| 2026-04-24 09:48 | -0.31742 | 102.29915 | 24369 ft | 426 kts | 129° |
| 2026-04-24 09:48 | -0.33383 | 102.32384 | 24666 ft | 428 kts | 118° |
| 2026-04-24 09:48 | -0.34790 | 102.35015 | 24975 ft | 430 kts | 118° |
| 2026-04-24 09:48 | -0.36202 | 102.37655 | 25270 ft | 431 kts | 118° |
| 2026-04-24 09:49 | -0.37136 | 102.39403 | 25455 ft | 433 kts | 118° |
| 2026-04-24 09:49 | -0.39037 | 102.42959 | 25841 ft | 435 kts | 118° |
| 2026-04-24 09:49 | -0.39984 | 102.44726 | 26023 ft | 436 kts | 118° |
| 2026-04-24 09:49 | -0.41416 | 102.47397 | 26296 ft | 437 kts | 118° |
| 2026-04-24 09:50 | -0.42858 | 102.50087 | 26558 ft | 439 kts | 118° |
| 2026-04-24 09:50 | -0.44302 | 102.52776 | 26797 ft | 440 kts | 118° |
| 2026-04-24 09:50 | -0.46249 | 102.56394 | 27138 ft | 442 kts | 118° |
| 2026-04-24 09:50 | -0.47212 | 102.58180 | 27296 ft | 443 kts | 118° |
| 2026-04-24 09:51 | -0.48675 | 102.60895 | 27529 ft | 444 kts | 118° |
| 2026-04-24 09:51 | -0.50140 | 102.63622 | 27750 ft | 446 kts | 118° |
| 2026-04-24 09:51 | -0.51609 | 102.66351 | 27972 ft | 447 kts | 118° |
| 2026-04-24 09:51 | -0.53088 | 102.69093 | 28198 ft | 448 kts | 118° |
| 2026-04-24 09:52 | -0.54562 | 102.71828 | 28401 ft | 449 kts | 118° |
| 2026-04-24 09:52 | -0.56044 | 102.74583 | 28602 ft | 451 kts | 118° |
| 2026-04-24 09:52 | -0.57531 | 102.77355 | 28808 ft | 452 kts | 118° |
| 2026-04-24 09:52 | -0.59024 | 102.80132 | 29021 ft | 453 kts | 118° |
| 2026-04-24 09:53 | -0.60517 | 102.82900 | 29217 ft | 455 kts | 119° |
| 2026-04-24 09:53 | -0.62018 | 102.85687 | 29410 ft | 456 kts | 118° |
| 2026-04-24 09:53 | -0.63522 | 102.88482 | 29595 ft | 457 kts | 119° |
| 2026-04-24 09:53 | -0.65026 | 102.91278 | 29782 ft | 458 kts | 119° |
| 2026-04-24 09:54 | -0.66538 | 102.94086 | 29937 ft | 460 kts | 119° |
| 2026-04-24 09:54 | -0.68054 | 102.96902 | 30189 ft | 460 kts | 119° |
| 2026-04-24 09:54 | -0.69573 | 102.99721 | 30379 ft | 461 kts | 119° |
| 2026-04-24 09:54 | -0.71090 | 103.02533 | 30600 ft | 460 kts | 119° |
| 2026-04-24 09:55 | -0.72604 | 103.05348 | 30840 ft | 459 kts | 119° |
| 2026-04-24 09:55 | -0.74113 | 103.08153 | 31088 ft | 458 kts | 119° |
| 2026-04-24 09:55 | -0.75623 | 103.10962 | 31297 ft | 458 kts | 119° |
| 2026-04-24 09:55 | -0.77126 | 103.13761 | 31538 ft | 457 kts | 119° |
| 2026-04-24 09:56 | -0.78627 | 103.16560 | 31774 ft | 456 kts | 119° |
| 2026-04-24 09:56 | -0.80131 | 103.19358 | 32004 ft | 456 kts | 119° |
| 2026-04-24 09:56 | -0.81628 | 103.22140 | 32234 ft | 455 kts | 119° |
| 2026-04-24 09:56 | -0.83129 | 103.24926 | 32464 ft | 455 kts | 119° |
| 2026-04-24 09:57 | -0.84628 | 103.27707 | 32692 ft | 454 kts | 119° |
| 2026-04-24 09:57 | -0.86127 | 103.30482 | 32934 ft | 454 kts | 119° |
| 2026-04-24 09:57 | -0.87623 | 103.33256 | 33176 ft | 453 kts | 120° |
| 2026-04-24 09:57 | -0.89333 | 103.35879 | 33397 ft | 451 kts | 129° |
| 2026-04-24 09:58 | -0.91459 | 103.38185 | 33632 ft | 450 kts | 138° |
| 2026-04-24 09:58 | -0.93869 | 103.40177 | 33750 ft | 450 kts | 141° |
| 2026-04-24 09:58 | -0.98649 | 103.44041 | 33787 ft | 442 kts | 141° |
| 2026-04-24 09:59 | -1.03454 | 103.47938 | 33786 ft | 441 kts | 141° |
| 2026-04-24 09:59 | -1.08221 | 103.51802 | 33784 ft | 441 kts | 141° |
| 2026-04-24 10:00 | -1.12986 | 103.55660 | 33795 ft | 441 kts | 141° |
| 2026-04-24 10:00 | -1.17759 | 103.59530 | 33797 ft | 441 kts | 141° |
| 2026-04-24 10:01 | -1.22531 | 103.63395 | 33796 ft | 442 kts | 141° |
| 2026-04-24 10:01 | -1.27267 | 103.67236 | 33801 ft | 442 kts | 141° |
| 2026-04-24 10:02 | -1.32040 | 103.71101 | 33808 ft | 441 kts | 141° |
| 2026-04-24 10:02 | -1.36818 | 103.74963 | 33808 ft | 441 kts | 141° |
| 2026-04-24 10:03 | -1.41589 | 103.78821 | 33808 ft | 441 kts | 141° |
| 2026-04-24 10:03 | -1.46361 | 103.82682 | 33818 ft | 441 kts | 141° |
| 2026-04-24 10:04 | -1.51126 | 103.86547 | 33812 ft | 441 kts | 141° |
| 2026-04-24 10:04 | -1.55889 | 103.90409 | 33815 ft | 441 kts | 141° |
| 2026-04-24 10:05 | -1.60661 | 103.94270 | 33821 ft | 441 kts | 141° |
| 2026-04-24 10:05 | -1.65424 | 103.98128 | 33825 ft | 441 kts | 141° |
| 2026-04-24 10:06 | -1.72578 | 104.03930 | 33826 ft | 441 kts | 141° |
| 2026-04-24 10:07 | -1.77348 | 104.07798 | 33831 ft | 441 kts | 141° |
| 2026-04-24 10:07 | -1.82119 | 104.11660 | 33832 ft | 442 kts | 141° |
| 2026-04-24 10:08 | -1.86900 | 104.15523 | 33834 ft | 442 kts | 141° |
| 2026-04-24 10:08 | -1.91672 | 104.19386 | 33833 ft | 442 kts | 141° |
| 2026-04-24 10:09 | -1.96436 | 104.23253 | 33832 ft | 441 kts | 141° |
| 2026-04-24 10:09 | -2.01198 | 104.27113 | 33837 ft | 439 kts | 140° |
| 2026-04-24 10:10 | -2.05957 | 104.30965 | 33831 ft | 440 kts | 141° |
| 2026-04-24 10:10 | -2.10723 | 104.34817 | 33828 ft | 440 kts | 141° |
| 2026-04-24 10:11 | -2.15480 | 104.38683 | 33825 ft | 441 kts | 141° |
| 2026-04-24 10:11 | -2.20235 | 104.42551 | 33821 ft | 441 kts | 141° |
| 2026-04-24 10:12 | -2.24993 | 104.46414 | 33823 ft | 441 kts | 141° |
| 2026-04-24 10:12 | -2.29763 | 104.50273 | 33820 ft | 441 kts | 141° |
| 2026-04-24 10:13 | -2.34535 | 104.54127 | 33823 ft | 441 kts | 141° |
| 2026-04-24 10:13 | -2.39313 | 104.58003 | 33820 ft | 442 kts | 141° |
| 2026-04-24 10:14 | -2.44089 | 104.61884 | 33819 ft | 442 kts | 141° |
| 2026-04-24 10:14 | -2.48861 | 104.65755 | 33821 ft | 442 kts | 141° |
| 2026-04-24 10:15 | -2.53641 | 104.69626 | 33820 ft | 442 kts | 141° |
| 2026-04-24 10:15 | -2.58421 | 104.73501 | 33827 ft | 443 kts | 141° |
| 2026-04-24 10:16 | -2.63213 | 104.77388 | 33837 ft | 443 kts | 141° |
| 2026-04-24 10:16 | -2.67996 | 104.81270 | 33843 ft | 443 kts | 141° |
| 2026-04-24 10:17 | -2.72786 | 104.85161 | 33851 ft | 444 kts | 141° |
| 2026-04-24 10:17 | -2.77576 | 104.89047 | 33852 ft | 444 kts | 141° |
| 2026-04-24 10:18 | -2.82375 | 104.92941 | 33839 ft | 444 kts | 141° |
| 2026-04-24 10:18 | -2.87170 | 104.96836 | 33846 ft | 444 kts | 141° |
| 2026-04-24 10:19 | -2.91941 | 105.00704 | 33850 ft | 444 kts | 141° |
| 2026-04-24 10:19 | -2.96739 | 105.04602 | 33854 ft | 445 kts | 141° |
| 2026-04-24 10:20 | -3.01541 | 105.08501 | 33857 ft | 444 kts | 141° |
| 2026-04-24 10:20 | -3.06373 | 105.12424 | 33857 ft | 445 kts | 141° |
| 2026-04-24 10:21 | -3.11176 | 105.16323 | 33852 ft | 444 kts | 141° |
| 2026-04-24 10:21 | -3.15979 | 105.20224 | 33848 ft | 445 kts | 141° |
| 2026-04-24 10:22 | -3.20749 | 105.24097 | 33845 ft | 444 kts | 141° |
| 2026-04-24 10:22 | -3.25550 | 105.27999 | 33845 ft | 445 kts | 141° |
| 2026-04-24 10:23 | -3.30324 | 105.31941 | 33844 ft | 444 kts | 140° |
| 2026-04-24 10:23 | -3.35055 | 105.35916 | 33844 ft | 444 kts | 140° |
| 2026-04-24 10:24 | -3.39814 | 105.39892 | 33839 ft | 445 kts | 140° |
| 2026-04-24 10:24 | -3.44567 | 105.43868 | 33847 ft | 445 kts | 140° |
| 2026-04-24 10:25 | -3.49315 | 105.47845 | 33849 ft | 445 kts | 140° |
| 2026-04-24 10:25 | -3.54065 | 105.51812 | 33851 ft | 445 kts | 140° |
| 2026-04-24 10:26 | -3.58821 | 105.55783 | 33846 ft | 445 kts | 140° |
| 2026-04-24 10:26 | -3.63576 | 105.59748 | 33839 ft | 445 kts | 140° |
| 2026-04-24 10:27 | -3.68338 | 105.63716 | 33838 ft | 445 kts | 140° |
| 2026-04-24 10:27 | -3.73090 | 105.67694 | 33837 ft | 445 kts | 140° |
| 2026-04-24 10:28 | -3.77842 | 105.71665 | 33838 ft | 446 kts | 140° |
| 2026-04-24 10:28 | -3.82604 | 105.75643 | 33842 ft | 446 kts | 140° |
| 2026-04-24 10:29 | -3.87360 | 105.79619 | 33842 ft | 445 kts | 140° |
| 2026-04-24 10:29 | -3.92115 | 105.83593 | 33840 ft | 445 kts | 140° |
| 2026-04-24 10:30 | -3.96878 | 105.87564 | 33840 ft | 445 kts | 140° |
| 2026-04-24 10:30 | -4.01627 | 105.91530 | 33837 ft | 445 kts | 140° |
| 2026-04-24 10:31 | -4.06375 | 105.95506 | 33836 ft | 445 kts | 140° |
| 2026-04-24 10:31 | -4.11131 | 105.99480 | 33838 ft | 444 kts | 140° |
| 2026-04-24 10:32 | -4.15876 | 106.03450 | 33833 ft | 445 kts | 140° |
| 2026-04-24 10:32 | -4.19826 | 106.06754 | 33830 ft | 444 kts | 140° |
| 2026-04-24 10:33 | -4.24606 | 106.10754 | 33828 ft | 444 kts | 140° |
| 2026-04-24 10:33 | -4.29316 | 106.14695 | 33826 ft | 445 kts | 140° |
| 2026-04-24 10:34 | -4.34066 | 106.18670 | 33822 ft | 445 kts | 140° |
| 2026-04-24 10:34 | -4.38815 | 106.22645 | 33824 ft | 445 kts | 140° |
| 2026-04-24 10:35 | -4.43568 | 106.26630 | 33827 ft | 445 kts | 140° |
| 2026-04-24 10:35 | -4.48316 | 106.30603 | 33826 ft | 445 kts | 140° |
| 2026-04-24 10:36 | -4.53068 | 106.34578 | 33827 ft | 445 kts | 140° |
| 2026-04-24 10:36 | -4.57819 | 106.38565 | 33827 ft | 445 kts | 140° |
| 2026-04-24 10:37 | -4.62566 | 106.42549 | 33828 ft | 445 kts | 140° |
| 2026-04-24 10:37 | -4.67319 | 106.46524 | 33828 ft | 445 kts | 140° |
| 2026-04-24 10:38 | -4.72071 | 106.50498 | 33831 ft | 445 kts | 140° |
| 2026-04-24 10:38 | -4.76821 | 106.54481 | 33829 ft | 445 kts | 140° |
| 2026-04-24 10:39 | -4.81556 | 106.58469 | 33622 ft | 441 kts | 140° |
| 2026-04-24 10:39 | -4.83891 | 106.60435 | 33080 ft | 438 kts | 140° |
| 2026-04-24 10:39 | -4.86319 | 106.62256 | 32543 ft | 434 kts | 149° |
| 2026-04-24 10:39 | -4.88990 | 106.63638 | 32006 ft | 431 kts | 156° |
| 2026-04-24 10:40 | -4.91708 | 106.64866 | 31473 ft | 428 kts | 156° |
| 2026-04-24 10:40 | -4.94412 | 106.66094 | 30942 ft | 425 kts | 156° |
| 2026-04-24 10:40 | -4.97093 | 106.67319 | 30423 ft | 422 kts | 155° |
| 2026-04-24 10:40 | -4.99753 | 106.68540 | 29907 ft | 419 kts | 156° |
| 2026-04-24 10:41 | -5.02394 | 106.69752 | 29403 ft | 416 kts | 155° |
| 2026-04-24 10:41 | -5.05018 | 106.70954 | 28906 ft | 413 kts | 155° |
| 2026-04-24 10:41 | -5.07629 | 106.72147 | 28419 ft | 410 kts | 155° |
| 2026-04-24 10:41 | -5.10209 | 106.73323 | 27949 ft | 406 kts | 155° |
| 2026-04-24 10:42 | -5.12770 | 106.74492 | 27480 ft | 402 kts | 155° |
| 2026-04-24 10:42 | -5.15306 | 106.75658 | 27021 ft | 399 kts | 155° |
| 2026-04-24 10:42 | -5.17820 | 106.76811 | 26565 ft | 396 kts | 155° |
| 2026-04-24 10:42 | -5.20326 | 106.77952 | 26114 ft | 394 kts | 155° |
| 2026-04-24 10:43 | -5.22814 | 106.79078 | 25623 ft | 392 kts | 155° |
| 2026-04-24 10:43 | -5.25292 | 106.80197 | 25187 ft | 389 kts | 155° |
| 2026-04-24 10:43 | -5.27744 | 106.81306 | 24723 ft | 386 kts | 155° |
| 2026-04-24 10:43 | -5.30192 | 106.82415 | 24235 ft | 384 kts | 155° |
| 2026-04-24 10:44 | -5.32621 | 106.83514 | 23750 ft | 382 kts | 155° |
| 2026-04-24 10:44 | -5.35041 | 106.84608 | 23245 ft | 381 kts | 155° |
| 2026-04-24 10:44 | -5.37456 | 106.85701 | 22767 ft | 380 kts | 155° |
| 2026-04-24 10:44 | -5.39859 | 106.86787 | 22274 ft | 378 kts | 155° |
| 2026-04-24 10:45 | -5.42254 | 106.87874 | 21784 ft | 377 kts | 155° |
| 2026-04-24 10:45 | -5.44689 | 106.88836 | 21304 ft | 379 kts | 164° |
| 2026-04-24 10:45 | -5.47279 | 106.89236 | 20837 ft | 376 kts | 178° |
| 2026-04-24 10:45 | -5.49872 | 106.89025 | 20375 ft | 374 kts | 191° |
| 2026-04-24 10:46 | -5.52350 | 106.88242 | 19959 ft | 371 kts | 201° |
| 2026-04-24 10:46 | -5.54751 | 106.87301 | 19471 ft | 371 kts | 201° |
| 2026-04-24 10:46 | -5.57141 | 106.86376 | 19098 ft | 365 kts | 200° |
| 2026-04-24 10:46 | -5.59502 | 106.85471 | 18467 ft | 362 kts | 201° |
| 2026-04-24 10:47 | -5.61854 | 106.84577 | 17900 ft | 362 kts | 200° |
| 2026-04-24 10:47 | -5.64207 | 106.83679 | 17564 ft | 358 kts | 200° |
| 2026-04-24 10:47 | -5.66521 | 106.82790 | 16964 ft | 355 kts | 200° |
| 2026-04-24 10:47 | -5.68807 | 106.81908 | 16468 ft | 351 kts | 200° |
| 2026-04-24 10:48 | -5.71081 | 106.81028 | 15996 ft | 350 kts | 201° |
| 2026-04-24 10:48 | -5.73342 | 106.80155 | 15625 ft | 346 kts | 200° |
| 2026-04-24 10:48 | -5.75581 | 106.79291 | 15085 ft | 342 kts | 200° |
| 2026-04-24 10:48 | -5.77785 | 106.78439 | 14607 ft | 338 kts | 200° |
| 2026-04-24 10:49 | -5.79984 | 106.77590 | 14152 ft | 339 kts | 200° |
| 2026-04-24 10:49 | -5.82174 | 106.76745 | 13819 ft | 334 kts | 200° |
| 2026-04-24 10:49 | -5.84294 | 106.75778 | 13390 ft | 333 kts | 211° |
| 2026-04-24 10:49 | -5.86114 | 106.74377 | 12830 ft | 330 kts | 226° |
| 2026-04-24 10:50 | -5.87519 | 106.72566 | 12378 ft | 328 kts | 240° |
| 2026-04-24 10:50 | -5.88467 | 106.70517 | 11939 ft | 322 kts | 248° |
| 2026-04-24 10:50 | -5.89299 | 106.68437 | 11324 ft | 320 kts | 248° |
| 2026-04-24 10:50 | -5.90127 | 106.66368 | 10692 ft | 318 kts | 248° |
| 2026-04-24 10:51 | -5.90950 | 106.64309 | 10306 ft | 317 kts | 248° |
| 2026-04-24 10:51 | -5.91756 | 106.62291 | 10144 ft | 307 kts | 248° |
| 2026-04-24 10:51 | -5.92540 | 106.60326 | 9949 ft | 300 kts | 248° |
| 2026-04-24 10:51 | -5.93306 | 106.58409 | 9986 ft | 294 kts | 248° |
| 2026-04-24 10:52 | -5.94081 | 106.56485 | 9778 ft | 297 kts | 248° |
| 2026-04-24 10:52 | -5.94859 | 106.54573 | 9541 ft | 295 kts | 248° |
| 2026-04-24 10:52 | -5.95637 | 106.52667 | 9301 ft | 295 kts | 248° |
| 2026-04-24 10:52 | -5.96417 | 106.50764 | 9066 ft | 294 kts | 247° |
| 2026-04-24 10:53 | -5.97195 | 106.48869 | 8825 ft | 294 kts | 247° |
| 2026-04-24 10:53 | -5.97970 | 106.46975 | 8593 ft | 293 kts | 247° |
| 2026-04-24 10:53 | -5.98741 | 106.45083 | 8360 ft | 292 kts | 248° |
| 2026-04-24 10:53 | -5.99508 | 106.43192 | 8126 ft | 292 kts | 248° |
| 2026-04-24 10:54 | -6.00272 | 106.41308 | 7891 ft | 291 kts | 248° |
| 2026-04-24 10:54 | -6.01035 | 106.39434 | 7660 ft | 290 kts | 248° |
| 2026-04-24 10:54 | -6.01796 | 106.37561 | 7436 ft | 288 kts | 247° |
| 2026-04-24 10:54 | -6.02546 | 106.35716 | 7260 ft | 280 kts | 247° |
| 2026-04-24 10:55 | -6.03279 | 106.33954 | 7142 ft | 267 kts | 243° |
| 2026-04-24 10:55 | -6.04415 | 106.32535 | 7039 ft | 260 kts | 213° |
| 2026-04-24 10:55 | -6.06047 | 106.31828 | 6830 ft | 254 kts | 184° |
| 2026-04-24 10:55 | -6.07765 | 106.31928 | 6569 ft | 248 kts | 167° |
| 2026-04-24 10:56 | -6.09467 | 106.32236 | 6317 ft | 248 kts | 166° |
| 2026-04-24 10:56 | -6.11159 | 106.32542 | 6065 ft | 247 kts | 167° |
| 2026-04-24 10:56 | -6.12844 | 106.32843 | 5820 ft | 246 kts | 167° |
| 2026-04-24 10:56 | -6.14526 | 106.33144 | 5570 ft | 245 kts | 167° |
| 2026-04-24 10:57 | -6.16202 | 106.33442 | 5313 ft | 245 kts | 167° |
| 2026-04-24 10:57 | -6.17875 | 106.33736 | 5151 ft | 243 kts | 167° |
| 2026-04-24 10:57 | -6.19526 | 106.34084 | 5050 ft | 241 kts | 155° |
| 2026-04-24 10:57 | -6.20908 | 106.34972 | 4919 ft | 236 kts | 130° |
| 2026-04-24 10:58 | -6.21830 | 106.36305 | 4720 ft | 232 kts | 119° |
| 2026-04-24 10:58 | -6.22680 | 106.37690 | 4530 ft | 233 kts | 120° |
| 2026-04-24 10:58 | -6.23371 | 106.39143 | 4333 ft | 229 kts | 102° |
| 2026-04-24 10:58 | -6.23501 | 106.40724 | 4151 ft | 227 kts | 82° |
| 2026-04-24 10:59 | -6.23071 | 106.42237 | 4036 ft | 226 kts | 68° |
| 2026-04-24 10:59 | -6.22484 | 106.43704 | 3990 ft | 226 kts | 68° |
| 2026-04-24 10:59 | -6.21895 | 106.45179 | 3931 ft | 228 kts | 68° |
| 2026-04-24 10:59 | -6.21309 | 106.46651 | 3694 ft | 226 kts | 68° |
| 2026-04-24 11:00 | -6.20728 | 106.48111 | 3411 ft | 225 kts | 68° |
| 2026-04-24 11:00 | -6.20147 | 106.49570 | 3120 ft | 223 kts | 68° |
| 2026-04-24 11:00 | -6.19575 | 106.51009 | 2826 ft | 221 kts | 68° |
| 2026-04-24 11:00 | -6.19013 | 106.52419 | 2522 ft | 211 kts | 68° |
| 2026-04-24 11:01 | -6.18484 | 106.53748 | 2258 ft | 201 kts | 68° |
| 2026-04-24 11:01 | -6.17979 | 106.55016 | 2034 ft | 189 kts | 68° |
| 2026-04-24 11:01 | -6.17507 | 106.56203 | 1747 ft | 176 kts | 68° |
| 2026-04-24 11:01 | -6.17075 | 106.57287 | 1549 ft | 159 kts | 67° |
| 2026-04-24 11:02 | -6.16678 | 106.58285 | 1334 ft | 149 kts | 67° |
| 2026-04-24 11:02 | -6.16297 | 106.59240 | 1137 ft | 145 kts | 67° |
| 2026-04-24 11:02 | -6.15924 | 106.60176 | 944 ft | 144 kts | 67° |
| 2026-04-24 11:02 | -6.15554 | 106.61105 | 754 ft | 143 kts | 67° |
| 2026-04-24 11:03 | -6.15182 | 106.62037 | 571 ft | 143 kts | 67° |
| 2026-04-24 11:03 | -6.14813 | 106.62965 | 376 ft | 143 kts | 68° |
| 2026-04-24 11:03 | -6.14436 | 106.63897 | 202 ft | 144 kts | 67° |
| 2026-04-24 11:03 | -6.14067 | 106.64830 | 43 ft | 140 kts | 68° |
| 2026-04-24 11:04 | -6.13752 | 106.65602 | 38 ft | 95 kts | 68° |
| 2026-04-24 11:04 | -6.13569 | 106.66057 | 37 ft | 45 kts | 68° |
| 2026-04-24 11:04 | -6.13466 | 106.66213 | 40 ft | 18 kts | 47° |
| 2026-04-24 11:04 | -6.13382 | 106.66282 | 39 ft | 13 kts | 35° |
| 2026-04-24 11:05 | -6.13333 | 106.66295 | 39 ft | 4 kts | 353° |
| 2026-04-24 11:05 | -6.13277 | 106.66311 | 39 ft | 11 kts | 48° |
| 2026-04-24 11:05 | -6.13242 | 106.66395 | 39 ft | 15 kts | 69° |
| 2026-04-24 11:05 | -6.13202 | 106.66498 | 39 ft | 17 kts | 69° |
| 2026-04-24 11:06 | -6.13156 | 106.66613 | 39 ft | 19 kts | 68° |
| 2026-04-24 11:06 | -6.13105 | 106.66737 | 39 ft | 20 kts | 68° |
| 2026-04-24 11:06 | -6.13052 | 106.66873 | 36 ft | 22 kts | 68° |
| 2026-04-24 11:06 | -6.12995 | 106.67017 | 38 ft | 23 kts | 68° |
| 2026-04-24 11:07 | -6.12876 | 106.67311 | 38 ft | 20 kts | 69° |
| 2026-04-24 11:07 | -6.12825 | 106.67441 | 38 ft | 21 kts | 62° |
| 2026-04-24 11:07 | -6.12747 | 106.67573 | 38 ft | 22 kts | 59° |
| 2026-04-24 11:08 | -6.12671 | 106.67703 | 37 ft | 19 kts | 59° |
| 2026-04-24 11:08 | -6.12595 | 106.67792 | 37 ft | 17 kts | 36° |
| 2026-04-24 11:08 | -6.12485 | 106.67846 | 38 ft | 18 kts | 16° |
| 2026-04-24 11:08 | -6.12353 | 106.67852 | 36 ft | 20 kts | 353° |
| 2026-04-24 11:09 | -6.12218 | 106.67807 | 38 ft | 21 kts | 338° |
| 2026-04-24 11:09 | -6.12075 | 106.67751 | 37 ft | 23 kts | 339° |
| 2026-04-24 11:09 | -6.11923 | 106.67690 | 36 ft | 24 kts | 338° |
| 2026-04-24 11:09 | -6.11763 | 106.67626 | 38 ft | 25 kts | 338° |
| 2026-04-24 11:10 | -6.11643 | 106.67579 | 38 ft | 16 kts | 338° |
| 2026-04-24 11:10 | -6.11574 | 106.67528 | 38 ft | 11 kts | 281° |
| 2026-04-24 11:10 | -6.11592 | 106.67460 | 38 ft | 10 kts | 248° |
| 2026-04-24 11:10 | -6.11615 | 106.67402 | 38 ft | 8 kts | 249° |
| 2026-04-24 11:11 | -6.11619 | 106.67334 | 38 ft | 10 kts | 302° |
| 2026-04-24 11:11 | -6.11563 | 106.67302 | 38 ft | 10 kts | 339° |
| 2026-04-24 11:11 | -6.11500 | 106.67277 | 38 ft | 9 kts | 339° |
| 2026-04-24 11:11 | -6.11448 | 106.67257 | 38 ft | 7 kts | 339° |
| 2026-04-24 11:12 | -6.11418 | 106.67245 | 38 ft | 6 kts | 339° |
| 2026-04-24 11:12 | -6.11407 | 106.67218 | 38 ft | 4 kts | 255° |
| 2026-04-24 11:12 | -6.11416 | 106.67195 | 38 ft | 3 kts | 247° |
| 2026-04-24 11:12 | -6.11423 | 106.67179 | 38 ft | 2 kts | 247° |
| 2026-04-24 11:13 | -6.11427 | 106.67170 | 38 ft | 1 kts | 247° |
| 2026-04-24 11:13 | -6.11427 | 106.67169 | 36 ft | 0 kts | 247° |